Time;durP1;ratioP1;P1;durP2;ratioP2;P2;SDS_P1;SDS_P2;PMS_P1;PMS_P2;Temp;Humidity;BMP_temperature;BMP_pressure;BME280_temperature;BME280_humidity;BME280_pressure;Samples;Min_cycle;Max_cycle;Signal;HPM_P1;HPM_P2
2023/01/25 00:02:00;;;;;;;44.78;18.08;;;;;;;0.93;100.00;97738.03;5039009;28;20038;-85
2023/01/25 00:04:27;;;;;;;39.33;17.42;;;;;;;0.96;100.00;97737.59;5034178;28;20493;-81
2023/01/25 00:06:53;;;;;;;46.85;18.63;;;;;;;0.96;100.00;97742.97;5037005;28;20048;-81
2023/01/25 00:09:20;;;;;;;45.17;18.48;;;;;;;0.88;100.00;97740.56;5032260;28;20064;-84
2023/01/25 00:11:48;;;;;;;43.83;18.40;;;;;;;0.93;100.00;97743.41;5036081;28;20056;-81
2023/01/25 00:14:16;;;;;;;44.75;19.85;;;;;;;0.88;100.00;97741.38;5033061;28;20049;-79
2023/01/25 00:16:43;;;;;;;42.65;17.77;;;;;;;0.89;100.00;97752.94;5039535;28;20048;-83
2023/01/25 00:19:10;;;;;;;47.25;18.45;;;;;;;0.84;100.00;97750.13;5035133;28;20048;-81
2023/01/25 00:21:38;;;;;;;48.70;18.40;;;;;;;0.83;100.00;97746.59;5040287;28;20044;-81
2023/01/25 00:24:06;;;;;;;42.10;18.77;;;;;;;0.81;100.00;97739.81;5035646;28;20041;-81
2023/01/25 00:26:32;;;;;;;42.10;17.20;;;;;;;0.86;100.00;97748.84;5032941;28;20049;-82
2023/01/25 00:28:59;;;;;;;46.22;18.65;;;;;;;0.87;100.00;97744.31;5033452;28;20049;-84
2023/01/25 00:31:36;;;;;;;40.13;17.38;;;;;;;0.91;100.00;97745.50;5034658;28;20042;-82
2023/01/25 00:34:20;;;;;;;43.75;18.00;;;;;;;0.96;100.00;97743.78;5036177;28;20033;-83
2023/01/25 00:36:46;;;;;;;38.65;16.48;;;;;;;0.91;100.00;97750.88;5033064;28;20034;-84
2023/01/25 00:39:13;;;;;;;48.58;18.98;;;;;;;0.82;100.00;97752.19;5033401;28;20048;-82
2023/01/25 00:41:39;;;;;;;42.50;17.85;;;;;;;0.84;100.00;97750.13;5041374;28;20041;-82
2023/01/25 00:44:06;;;;;;;46.72;18.67;;;;;;;0.78;100.00;97749.97;5036434;28;20445;-84
2023/01/25 00:46:34;;;;;;;47.30;18.13;;;;;;;0.78;100.00;97747.28;5036088;28;20069;-85
2023/01/25 00:49:01;;;;;;;40.55;16.65;;;;;;;0.83;100.00;97748.47;5032176;28;20634;-86
2023/01/25 00:51:27;;;;;;;45.53;18.35;;;;;;;0.79;100.00;97745.41;5033648;28;20475;-81
2023/01/25 00:53:54;;;;;;;40.22;17.00;;;;;;;0.83;100.00;97743.09;5040964;28;20045;-81
2023/01/25 00:56:20;;;;;;;39.90;17.55;;;;;;;0.76;100.00;97738.63;5037179;28;20064;-83
2023/01/25 00:58:47;;;;;;;46.67;18.35;;;;;;;0.77;100.00;97739.44;5037282;28;20052;-83
2023/01/25 01:01:13;;;;;;;38.40;16.48;;;;;;;0.69;100.00;97735.19;5039263;28;20056;-80
2023/01/25 01:03:41;;;;;;;40.70;16.65;;;;;;;0.66;100.00;97738.31;5043337;28;20053;-84
2023/01/25 01:06:11;;;;;;;37.10;16.30;;;;;;;0.73;100.00;97733.72;5041657;28;20041;-83
2023/01/25 01:08:39;;;;;;;35.80;16.75;;;;;;;0.70;100.00;97742.19;5036882;28;20044;-83
2023/01/25 01:11:08;;;;;;;37.17;16.00;;;;;;;0.74;100.00;97731.84;5039321;28;20045;-81
2023/01/25 01:13:35;;;;;;;44.35;18.05;;;;;;;0.71;100.00;97730.44;5040669;28;20041;-85
2023/01/25 01:16:03;;;;;;;40.95;17.02;;;;;;;0.72;100.00;97725.88;5036690;28;20509;-83
2023/01/25 01:18:33;;;;;;;42.47;17.40;;;;;;;0.75;100.00;97728.94;5035723;28;20038;-86
2023/01/25 01:21:01;;;;;;;39.10;16.88;;;;;;;0.75;100.00;97723.59;5036141;28;20528;-79
2023/01/25 01:23:29;;;;;;;39.38;16.05;;;;;;;0.73;100.00;97728.34;5036833;28;20037;-79
2023/01/25 01:25:56;;;;;;;40.80;16.70;;;;;;;0.69;100.00;97727.16;5043012;28;20512;-80
2023/01/25 01:28:22;;;;;;;37.60;16.10;;;;;;;0.72;100.00;97734.75;5036557;28;20522;-80
2023/01/25 01:30:48;;;;;;;41.53;17.20;;;;;;;0.66;100.00;97732.13;5038199;28;20429;-81
2023/01/25 01:33:15;;;;;;;39.40;17.23;;;;;;;0.64;100.00;97728.88;5037322;28;20057;-81
2023/01/25 01:35:41;;;;;;;35.03;16.00;;;;;;;0.57;100.00;97728.91;5037665;28;20041;-80
2023/01/25 01:38:09;;;;;;;38.35;15.27;;;;;;;0.58;100.00;97730.56;5043091;28;20045;-83
2023/01/25 01:40:36;;;;;;;43.88;16.45;;;;;;;0.64;100.00;97724.31;5040943;28;20045;-79
2023/01/25 01:43:04;;;;;;;37.10;14.90;;;;;;;0.56;99.57;97732.63;5039021;28;20414;-80
2023/01/25 01:45:54;;;;;;;34.67;15.32;;;;;;;0.55;100.00;97731.00;5037572;28;20045;-79
2023/01/25 01:48:30;;;;;;;36.53;16.63;;;;;;;0.54;100.00;97718.63;5038817;28;20547;-80
2023/01/25 01:51:00;;;;;;;37.42;15.35;;;;;;;0.57;100.00;97717.38;5040147;28;20052;-80
2023/01/25 01:53:31;;;;;;;37.50;15.38;;;;;;;0.55;100.00;97709.56;5037363;28;20052;-79
2023/01/25 01:56:02;;;;;;;43.28;17.42;;;;;;;0.52;100.00;97718.03;5037539;28;20068;-79
2023/01/25 01:58:29;;;;;;;39.13;16.63;;;;;;;0.51;100.00;97716.38;5037167;28;20037;-83
2023/01/25 02:00:56;;;;;;;41.03;17.08;;;;;;;0.54;100.00;97715.97;5042059;28;20257;-80
2023/01/25 02:03:23;;;;;;;41.90;16.88;;;;;;;0.55;100.00;97717.59;5037523;28;20045;-81
2023/01/25 02:05:56;;;;;;;37.15;15.98;;;;;;;0.55;100.00;97725.63;5037094;28;20037;-82
2023/01/25 02:08:24;;;;;;;42.60;17.33;;;;;;;0.53;100.00;97727.72;5041852;28;20048;-81
2023/01/25 02:10:52;;;;;;;44.15;17.13;;;;;;;0.54;100.00;97724.00;5044014;28;20107;-81
2023/01/25 02:13:20;;;;;;;41.65;17.23;;;;;;;0.55;100.00;97719.44;5036076;28;20062;-80
2023/01/25 02:15:49;;;;;;;47.72;17.15;;;;;;;0.48;100.00;97720.34;5047327;28;20041;-81
2023/01/25 02:18:16;;;;;;;37.15;16.13;;;;;;;0.51;100.00;97724.44;5039814;28;20044;-80
2023/01/25 02:20:43;;;;;;;46.05;17.92;;;;;;;0.45;100.00;97726.13;5042591;28;20045;-82
2023/01/25 02:23:21;;;;;;;41.40;16.63;;;;;;;0.47;100.00;97720.53;5035627;28;20674;-81
2023/01/25 02:25:49;;;;;;;41.92;18.63;;;;;;;0.54;100.00;97715.97;5039986;28;20045;-85
2023/01/25 02:28:21;;;;;;;41.35;17.70;;;;;;;0.61;100.00;97716.69;5040083;28;20530;-81
2023/01/25 02:30:48;;;;;;;43.92;16.65;;;;;;;0.61;100.00;97708.66;5035531;28;20490;-81
2023/01/25 02:33:14;;;;;;;43.53;16.98;;;;;;;0.55;100.00;97711.41;5038514;28;20049;-83
2023/01/25 02:35:43;;;;;;;40.15;16.60;;;;;;;0.62;100.00;97714.84;5042507;28;20351;-83
2023/01/25 02:38:13;;;;;;;45.42;17.67;;;;;;;0.65;100.00;97709.88;5037252;28;20391;-82
2023/01/25 02:40:45;;;;;;;38.42;15.93;;;;;;;0.58;100.00;97717.16;5038467;28;20056;-83
2023/01/25 02:43:14;;;;;;;45.73;16.20;;;;;;;0.61;100.00;97708.66;5035123;28;20072;-78
2023/01/25 02:45:40;;;;;;;39.95;16.15;;;;;;;0.52;100.00;97708.16;5035425;28;20295;-79
2023/01/25 02:48:07;;;;;;;46.50;18.00;;;;;;;0.52;100.00;97709.97;5034148;28;20052;-79
2023/01/25 02:50:33;;;;;;;46.67;17.55;;;;;;;0.45;100.00;97703.88;5041113;28;20037;-81
2023/01/25 02:53:00;;;;;;;46.63;18.17;;;;;;;0.51;100.00;97697.63;5046535;28;20041;-82
2023/01/25 02:55:26;;;;;;;46.95;18.15;;;;;;;0.57;100.00;97702.09;5034853;28;20037;-80
2023/01/25 02:57:53;;;;;;;48.58;18.50;;;;;;;0.61;100.00;97702.47;5035030;28;20409;-83
2023/01/25 03:00:21;;;;;;;44.10;18.13;;;;;;;0.59;100.00;97705.41;5036730;28;20413;-81
2023/01/25 03:02:48;;;;;;;39.45;16.95;;;;;;;0.65;100.00;97707.19;5035946;28;20096;-78
2023/01/25 03:05:14;;;;;;;43.38;17.52;;;;;;;0.65;100.00;97704.50;5034570;28;20553;-84
2023/01/25 03:07:40;;;;;;;39.55;16.48;;;;;;;0.59;100.00;97699.22;5034825;28;20041;-83
2023/01/25 03:10:08;;;;;;;40.92;17.25;;;;;;;0.66;100.00;97711.50;5037987;28;20048;-83
2023/01/25 03:12:35;;;;;;;45.17;17.45;;;;;;;0.66;100.00;97710.69;5039544;28;20041;-84
2023/01/25 03:15:01;;;;;;;43.30;17.23;;;;;;;0.68;100.00;97703.22;5034611;28;20053;-85
2023/01/25 03:17:30;;;;;;;43.28;17.63;;;;;;;0.67;100.00;97707.78;5034614;28;20041;-82
2023/01/25 03:19:56;;;;;;;42.95;17.73;;;;;;;0.61;100.00;97703.31;5035289;28;20498;-82
2023/01/25 03:22:23;;;;;;;44.95;17.85;;;;;;;0.66;100.00;97691.91;5034746;28;20049;-81
2023/01/25 03:24:49;;;;;;;43.58;17.55;;;;;;;0.63;100.00;97695.88;5035560;28;20488;-79
2023/01/25 03:27:17;;;;;;;40.03;16.65;;;;;;;0.61;100.00;97692.56;5033985;28;20041;-81
2023/01/25 03:29:44;;;;;;;43.20;17.23;;;;;;;0.60;100.00;97688.25;5035019;28;20048;-79
2023/01/25 03:32:11;;;;;;;43.25;16.83;;;;;;;0.63;100.00;97695.88;5035993;28;20560;-81
2023/01/25 03:34:39;;;;;;;43.63;17.00;;;;;;;0.62;100.00;97694.22;5041967;28;20045;-81
2023/01/25 03:37:05;;;;;;;45.78;17.58;;;;;;;0.54;100.00;97697.19;5034585;28;20041;-81
2023/01/25 03:39:32;;;;;;;45.90;18.02;;;;;;;0.51;100.00;97697.63;5035143;28;20041;-81
2023/01/25 03:41:58;;;;;;;43.55;17.92;;;;;;;0.49;100.00;97699.72;5042598;28;20044;-78
2023/01/25 03:44:25;;;;;;;41.88;17.58;;;;;;;0.51;100.00;97693.09;5047993;28;20517;-82
2023/01/25 03:46:51;;;;;;;50.38;18.35;;;;;;;0.47;100.00;97696.41;5034837;28;20048;-86
2023/01/25 03:49:18;;;;;;;47.05;19.77;;;;;;;0.42;100.00;97693.63;5033244;28;20072;-83
2023/01/25 03:51:46;;;;;;;46.75;16.92;;;;;;;0.48;100.00;97685.50;5041211;28;20536;-86
2023/01/25 03:54:12;;;;;;;46.05;18.30;;;;;;;0.39;100.00;97688.69;5035139;28;20045;-86
2023/01/25 03:56:39;;;;;;;46.83;18.77;;;;;;;0.39;100.00;97694.03;5034839;28;20045;-85
2023/01/25 03:59:06;;;;;;;50.72;19.05;;;;;;;0.40;100.00;97685.78;5034058;28;20037;-81
2023/01/25 04:01:32;;;;;;;42.72;17.58;;;;;;;0.40;100.00;97684.94;5034208;28;20041;-83
2023/01/25 04:03:59;;;;;;;47.63;18.40;;;;;;;0.25;100.00;97688.78;5034493;28;20132;-82
2023/01/25 04:06:25;;;;;;;41.60;18.02;;;;;;;0.33;100.00;97676.16;5040175;28;20041;-83
2023/01/25 04:08:53;;;;;;;43.22;17.75;;;;;;;0.34;100.00;97683.97;5033806;28;20041;-83
2023/01/25 04:11:20;;;;;;;44.13;17.98;;;;;;;0.33;100.00;97673.50;5036001;28;20052;-82
2023/01/25 04:13:46;;;;;;;46.65;18.17;;;;;;;0.40;100.00;97674.22;5034709;28;20048;-83
2023/01/25 04:16:13;;;;;;;44.38;17.85;;;;;;;0.38;100.00;97668.28;5033170;28;20044;-86
2023/01/25 04:18:39;;;;;;;41.15;16.02;;;;;;;0.39;100.00;97656.53;5034567;28;20037;-83
2023/01/25 04:21:06;;;;;;;50.25;18.80;;;;;;;0.34;100.00;97654.50;5032841;28;20133;-83
2023/01/25 04:23:33;;;;;;;45.55;17.30;;;;;;;0.34;100.00;97653.69;5034206;28;20042;-82
2023/01/25 04:26:04;;;;;;;40.72;16.90;;;;;;;0.36;100.00;97649.72;5038568;28;20052;-81
2023/01/25 04:28:31;;;;;;;43.55;18.20;;;;;;;0.25;100.00;97645.91;5032097;28;20128;-82
2023/01/25 04:30:58;;;;;;;44.67;18.00;;;;;;;0.31;100.00;97654.13;5039495;28;20046;-82
2023/01/25 04:33:25;;;;;;;46.75;18.15;;;;;;;0.36;100.00;97647.06;5036288;28;20041;-85
2023/01/25 04:35:52;;;;;;;44.40;17.90;;;;;;;0.30;100.00;97652.47;5037978;28;20041;-81
2023/01/25 04:38:19;;;;;;;41.80;16.23;;;;;;;0.37;100.00;97648.72;5032713;28;20049;-80
2023/01/25 04:40:45;;;;;;;43.35;17.58;;;;;;;0.43;100.00;97649.69;5035812;28;20126;-83
2023/01/25 04:43:14;;;;;;;45.42;17.05;;;;;;;0.45;100.00;97647.59;5040397;28;20154;-83
2023/01/25 04:45:41;;;;;;;45.45;18.52;;;;;;;0.48;100.00;97644.47;5033545;28;20048;-84
2023/01/25 04:48:11;;;;;;;45.35;18.67;;;;;;;0.49;100.00;97646.13;5040029;28;20044;-82
2023/01/25 04:50:38;;;;;;;38.30;15.52;;;;;;;0.51;100.00;97650.19;5033881;28;20528;-81
2023/01/25 04:53:05;;;;;;;49.85;17.95;;;;;;;0.44;100.00;97646.78;5033100;28;20633;-80
2023/01/25 04:55:32;;;;;;;41.97;16.48;;;;;;;0.34;100.00;97634.94;5035144;28;20041;-83
2023/01/25 04:57:59;;;;;;;40.25;15.32;;;;;;;0.37;100.00;97647.91;5033784;28;20052;-80
2023/01/25 05:00:28;;;;;;;41.28;16.20;;;;;;;0.37;100.00;97642.53;5033569;28;20509;-83
2023/01/25 05:02:55;;;;;;;41.15;16.30;;;;;;;0.38;100.00;97644.16;5037755;28;20037;-84
2023/01/25 05:05:22;;;;;;;48.53;17.65;;;;;;;0.41;100.00;97638.34;5035679;28;20057;-83
2023/01/25 05:07:48;;;;;;;45.28;17.38;;;;;;;0.46;100.00;97646.53;5037826;28;20045;-84
2023/01/25 05:10:15;;;;;;;44.47;18.40;;;;;;;0.34;100.00;97637.63;5036267;28;20064;-84
2023/01/25 05:12:41;;;;;;;44.22;16.77;;;;;;;0.32;100.00;97629.81;5033366;28;20037;-85
2023/01/25 05:15:08;;;;;;;41.13;17.42;;;;;;;0.34;100.00;97646.47;5032158;28;20045;-85
2023/01/25 05:17:36;;;;;;;45.20;17.58;;;;;;;0.28;100.00;97633.97;5039139;28;20045;-83
2023/01/25 05:20:03;;;;;;;43.25;17.20;;;;;;;0.25;100.00;97632.53;5032520;28;20048;-83
2023/01/25 05:22:29;;;;;;;43.45;16.30;;;;;;;0.19;100.00;97630.72;5033800;28;20045;-83
2023/01/25 05:24:57;;;;;;;42.50;17.65;;;;;;;0.20;100.00;97627.00;5033804;28;20037;-80
2023/01/25 05:27:23;;;;;;;44.10;17.73;;;;;;;0.22;100.00;97624.13;5035976;28;20084;-83
2023/01/25 05:29:50;;;;;;;43.42;17.25;;;;;;;0.19;100.00;97633.41;5038007;28;20037;-83
2023/01/25 05:32:18;;;;;;;50.45;17.67;;;;;;;0.26;100.00;97630.66;5032383;28;20060;-86
2023/01/25 05:34:47;;;;;;;45.72;18.10;;;;;;;0.24;100.00;97617.50;5033580;28;20045;-85
2023/01/25 05:37:16;;;;;;;47.58;18.55;;;;;;;0.23;100.00;97621.22;5032753;28;20517;-83
2023/01/25 05:39:42;;;;;;;43.30;16.77;;;;;;;0.25;100.00;97619.13;5036671;28;20038;-85
2023/01/25 05:42:11;;;;;;;43.70;16.02;;;;;;;0.29;100.00;97624.06;5043954;28;20045;-88
2023/01/25 05:44:38;;;;;;;39.17;15.98;;;;;;;0.29;100.00;97626.75;5040112;28;20060;-82
2023/01/25 05:47:04;;;;;;;43.33;15.95;;;;;;;0.24;100.00;97624.72;5039141;28;20037;-84
2023/01/25 05:49:31;;;;;;;41.95;16.13;;;;;;;0.22;100.00;97613.41;5040012;28;20045;-85
2023/01/25 05:51:59;;;;;;;44.58;16.38;;;;;;;0.24;100.00;97612.13;5037066;28;20056;-86
2023/01/25 05:54:25;;;;;;;46.80;18.80;;;;;;;0.25;100.00;97619.13;5036066;28;20042;-84
2023/01/25 05:56:52;;;;;;;40.38;16.33;;;;;;;0.20;100.00;97610.94;5037928;28;20044;-84
2023/01/25 05:59:18;;;;;;;42.92;17.38;;;;;;;0.18;100.00;97613.03;5039654;28;20045;-87
2023/01/25 06:01:45;;;;;;;47.70;17.02;;;;;;;0.09;100.00;97614.34;5041243;28;20042;-86
2023/01/25 06:04:14;;;;;;;43.20;16.23;;;;;;;0.10;100.00;97602.59;5040083;28;20041;-83
2023/01/25 06:06:40;;;;;;;42.58;16.83;;;;;;;0.10;100.00;97607.94;5039169;28;20037;-83
2023/01/25 06:09:10;;;;;;;44.97;17.98;;;;;;;0.05;100.00;97613.13;5038699;28;20494;-85
2023/01/25 06:11:37;;;;;;;48.50;16.30;;;;;;;-0.01;100.00;97608.66;5041139;28;20045;-85
2023/01/25 06:14:03;;;;;;;47.00;17.65;;;;;;;0.02;100.00;97599.38;5037318;28;20449;-86
2023/01/25 06:16:30;;;;;;;43.53;17.20;;;;;;;-0.01;100.00;97597.94;5045918;28;20037;-84
2023/01/25 06:18:56;;;;;;;45.83;17.30;;;;;;;-0.01;100.00;97603.31;5037317;28;20038;-85
2023/01/25 06:21:23;;;;;;;41.72;16.50;;;;;;;-0.01;100.00;97603.31;5037489;28;20041;-84
2023/01/25 06:23:49;;;;;;;49.40;18.40;;;;;;;-0.01;100.00;97601.44;5038543;28;20038;-85
2023/01/25 06:26:17;;;;;;;48.83;18.63;;;;;;;0.02;100.00;97602.06;5035825;28;20045;-85
2023/01/25 06:28:44;;;;;;;41.33;16.15;;;;;;;0.03;100.00;97604.50;5037189;28;20686;-87
2023/01/25 06:31:12;;;;;;;49.85;18.63;;;;;;;-0.01;100.00;97597.94;5034684;28;20041;-83
2023/01/25 06:33:40;;;;;;;41.78;16.83;;;;;;;-0.01;100.00;97593.41;5034973;28;20049;-83
2023/01/25 06:36:09;;;;;;;44.22;17.80;;;;;;;-0.06;100.00;97584.41;5035662;28;20057;-86
2023/01/25 06:38:36;;;;;;;45.42;16.98;;;;;;;0.00;100.00;97588.91;5041998;28;20038;-86
2023/01/25 06:41:04;;;;;;;40.80;15.82;;;;;;;0.01;100.00;97584.38;5034822;28;20785;-86
2023/01/25 06:43:33;;;;;;;41.63;17.02;;;;;;;0.04;100.00;97578.56;5031787;28;20052;-86
2023/01/25 06:46:01;;;;;;;38.60;15.65;;;;;;;-0.03;100.00;97568.72;5048736;28;20053;-81
2023/01/25 06:48:28;;;;;;;44.67;17.38;;;;;;;-0.03;100.00;97578.63;5030515;28;20045;-86
2023/01/25 06:50:57;;;;;;;40.53;15.77;;;;;;;0.05;100.00;97583.69;5031083;28;20038;-80
2023/01/25 06:53:25;;;;;;;46.05;16.55;;;;;;;0.06;100.00;97582.66;5030628;28;20045;-88
2023/01/25 06:55:57;;;;;;;39.35;16.80;;;;;;;0.12;100.00;97587.13;5035739;28;20433;-86
2023/01/25 06:58:24;;;;;;;40.63;17.03;;;;;;;0.11;100.00;97582.81;5037395;28;20057;-86
2023/01/25 07:00:51;;;;;;;37.20;15.52;;;;;;;0.11;100.00;97580.13;5032457;28;20426;-80
2023/01/25 07:03:18;;;;;;;42.72;16.15;;;;;;;0.13;100.00;97578.06;5033896;28;20049;-84
2023/01/25 07:05:45;;;;;;;46.22;18.30;;;;;;;0.13;100.00;97564.66;5046367;28;20450;-86
2023/01/25 07:08:11;;;;;;;41.55;16.25;;;;;;;0.11;100.00;97573.97;5051144;28;20045;-82
2023/01/25 07:10:38;;;;;;;41.15;16.77;;;;;;;0.11;100.00;97573.97;5036766;28;20501;-82
2023/01/25 07:13:04;;;;;;;39.85;15.70;;;;;;;0.04;100.00;97574.00;5032720;28;20433;-82
2023/01/25 07:15:31;;;;;;;38.45;16.60;;;;;;;0.04;100.00;97574.00;5032067;28;20072;-84
2023/01/25 07:17:58;;;;;;;40.65;17.52;;;;;;;0.02;100.00;97573.44;5032607;28;20048;-82
2023/01/25 07:20:25;;;;;;;32.80;14.88;;;;;;;0.06;100.00;97569.28;5032104;28;20053;-81
2023/01/25 07:22:51;;;;;;;37.97;17.23;;;;;;;0.02;100.00;97576.09;5047384;28;20041;-82
2023/01/25 07:25:18;;;;;;;35.30;15.90;;;;;;;0.03;100.00;97572.38;5032505;28;20049;-82
2023/01/25 07:27:44;;;;;;;37.95;15.77;;;;;;;0.05;100.00;97575.63;5034369;28;20041;-81
2023/01/25 07:30:11;;;;;;;38.35;16.20;;;;;;;0.06;100.00;97571.94;5047406;28;20044;-82
2023/01/25 07:32:38;;;;;;;39.55;16.48;;;;;;;-0.06;100.00;97573.69;5038452;28;20041;-85
2023/01/25 07:35:07;;;;;;;40.65;17.02;;;;;;;-0.04;100.00;97571.63;5034855;28;20042;-84
2023/01/25 07:37:33;;;;;;;36.47;15.35;;;;;;;-0.02;100.00;97575.72;5036091;28;20387;-80
2023/01/25 07:40:00;;;;;;;39.95;17.02;;;;;;;0.01;100.00;97579.81;5049559;28;20050;-82
2023/01/25 07:42:26;;;;;;;38.97;16.05;;;;;;;-0.01;100.00;97582.69;5037550;28;20095;-83
2023/01/25 07:44:52;;;;;;;40.47;16.77;;;;;;;0.07;100.00;97583.47;5042080;28;20052;-85
2023/01/25 07:47:19;;;;;;;38.63;17.20;;;;;;;0.09;100.00;97579.53;5039968;28;20049;-85
2023/01/25 07:49:45;;;;;;;35.95;16.27;;;;;;;0.08;100.00;97580.56;5046081;28;20048;-80
2023/01/25 07:52:13;;;;;;;40.67;15.80;;;;;;;0.08;100.00;97575.22;5046780;28;20595;-79
2023/01/25 07:54:40;;;;;;;37.83;15.90;;;;;;;0.09;100.00;97579.53;5031418;28;20052;-81
2023/01/25 07:57:06;;;;;;;38.60;16.70;;;;;;;0.11;100.00;97574.78;5035465;28;20046;-80
2023/01/25 07:59:33;;;;;;;38.10;16.70;;;;;;;0.10;100.00;97567.75;5030512;28;20046;-81
2023/01/25 08:01:59;;;;;;;37.75;15.75;;;;;;;0.15;100.00;97575.13;5033264;28;20100;-77
2023/01/25 08:04:25;;;;;;;39.33;17.10;;;;;;;0.11;100.00;97568.63;5037548;28;20049;-82
2023/01/25 08:06:52;;;;;;;36.67;15.98;;;;;;;0.08;100.00;97572.53;5034496;28;20045;-80
2023/01/25 08:09:20;;;;;;;39.22;15.90;;;;;;;0.07;100.00;97568.22;5029754;28;20061;-78
2023/01/25 08:11:48;;;;;;;36.50;16.20;;;;;;;0.08;100.00;97569.03;5031619;28;20052;-79
2023/01/25 08:14:14;;;;;;;43.30;17.65;;;;;;;0.06;100.00;97577.31;5035725;28;20087;-84
2023/01/25 08:16:41;;;;;;;37.40;15.50;;;;;;;0.10;100.00;97570.44;5038242;28;20048;-81
2023/01/25 08:19:09;;;;;;;40.65;15.57;;;;;;;0.10;100.00;97573.13;5029334;28;20079;-81
2023/01/25 08:21:36;;;;;;;42.60;16.80;;;;;;;0.13;100.00;97566.53;5042573;28;20115;-80
2023/01/25 08:24:05;;;;;;;39.72;16.05;;;;;;;0.16;100.00;97574.13;5045099;28;20045;-80
2023/01/25 08:26:34;;;;;;;42.88;17.92;;;;;;;0.18;100.00;97570.16;5034180;28;20041;-83
2023/01/25 08:29:00;;;;;;;41.67;17.33;;;;;;;0.19;100.00;97565.63;5040923;28;20382;-82
2023/01/25 08:31:29;;;;;;;43.30;17.55;;;;;;;0.20;100.00;97565.41;5028635;28;20053;-80
2023/01/25 08:33:56;;;;;;;43.25;18.08;;;;;;;0.19;100.00;97570.97;5036051;28;20053;-82
2023/01/25 08:36:23;;;;;;;44.55;18.27;;;;;;;0.24;100.00;97563.09;5029200;28;20056;-81
2023/01/25 08:38:54;;;;;;;41.00;17.55;;;;;;;0.31;100.00;97568.38;5029909;28;20091;-79
2023/01/25 08:41:20;;;;;;;45.78;17.20;;;;;;;0.30;100.00;97561.38;5035523;28;20060;-83
2023/01/25 08:43:48;;;;;;;47.33;17.98;;;;;;;0.28;100.00;97558.13;5027465;28;20498;-80
2023/01/25 08:46:16;;;;;;;46.22;18.88;;;;;;;0.29;100.00;97559.75;5027102;28;20086;-79
2023/01/25 08:48:43;;;;;;;47.83;19.65;;;;;;;0.20;100.00;97557.34;5032782;28;20047;-82
2023/01/25 08:51:12;;;;;;;53.50;20.10;;;;;;;0.19;100.00;97555.72;5033016;28;20045;-82
2023/01/25 08:53:39;;;;;;;52.15;20.20;;;;;;;0.07;100.00;97560.19;5031224;28;20053;-82
2023/01/25 08:56:07;;;;;;;51.58;21.63;;;;;;;0.16;100.00;97550.84;5043785;28;20049;-78
2023/01/25 08:58:34;;;;;;;57.20;20.88;;;;;;;0.22;100.00;97549.13;5029547;28;20042;-82
2023/01/25 09:01:04;;;;;;;48.38;20.45;;;;;;;0.22;100.00;97544.59;5031036;28;20053;-78
2023/01/25 09:03:31;;;;;;;52.72;20.73;;;;;;;0.23;100.00;97540.84;5032398;28;20137;-83
2023/01/25 09:05:57;;;;;;;56.47;22.17;;;;;;;0.28;100.00;97536.69;5039448;28;20068;-80
2023/01/25 09:08:25;;;;;;;53.72;20.92;;;;;;;0.29;100.00;97538.31;5033910;28;20041;-80
2023/01/25 09:10:51;;;;;;;59.75;22.48;;;;;;;0.29;100.00;97538.31;5030647;28;20049;-81
2023/01/25 09:13:18;;;;;;;57.85;21.17;;;;;;;0.28;100.00;97537.50;5028839;28;20061;-81
2023/01/25 09:15:44;;;;;;;57.22;21.55;;;;;;;0.22;100.00;97539.22;5039807;28;20408;-83
2023/01/25 09:18:13;;;;;;;58.75;23.77;;;;;;;0.15;100.00;97533.09;5033332;28;20045;-80
2023/01/25 09:20:39;;;;;;;54.40;21.70;;;;;;;0.16;100.00;97544.66;5032102;28;20046;-82
2023/01/25 09:23:06;;;;;;;55.72;22.20;;;;;;;0.22;100.00;97539.22;5030686;28;20045;-82
2023/01/25 09:25:34;;;;;;;57.08;23.65;;;;;;;0.16;100.00;97545.47;5030930;28;20045;-81
2023/01/25 09:28:01;;;;;;;55.25;22.55;;;;;;;0.16;100.00;97545.47;5034412;28;20041;-80
2023/01/25 09:30:28;;;;;;;60.22;24.55;;;;;;;0.19;100.00;97536.97;5039130;28;20045;-84
2023/01/25 09:32:54;;;;;;;57.53;22.95;;;;;;;0.20;100.00;97540.47;5037793;28;20068;-80
2023/01/25 09:35:22;;;;;;;60.90;23.52;;;;;;;0.21;100.00;97537.59;5031041;28;20045;-81
2023/01/25 09:37:51;;;;;;;57.28;23.13;;;;;;;0.24;100.00;97545.16;5031674;28;20050;-84
2023/01/25 09:40:21;;;;;;;56.05;21.85;;;;;;;0.25;100.00;97536.06;5034134;28;20056;-78
2023/01/25 09:42:58;;;;;;;53.30;22.00;;;;;;;0.36;100.00;97536.38;5039122;28;20045;-78
2023/01/25 09:45:31;;;;;;;60.33;23.25;;;;;;;0.22;100.00;97544.59;5031555;28;20046;-82
2023/01/25 09:48:00;;;;;;;;;;;;;;;0.23;100.00;97538.19;5031754;28;20104;-83
2023/01/25 09:50:35;;;;;;;55.50;21.90;;;;;;;0.34;100.00;97541.16;5035260;28;20396;-82
2023/01/25 09:53:23;;;;;;;60.38;23.17;;;;;;;0.23;100.00;97535.50;5039604;28;20056;-85
2023/01/25 09:55:57;;;;;;;60.75;23.52;;;;;;;0.29;100.00;97532.97;5033543;28;20083;-83
2023/01/25 09:58:30;;;;;;;63.67;23.55;;;;;;;0.20;100.00;97525.22;5035119;28;20051;-81
2023/01/25 10:01:07;;;;;;;53.63;21.25;;;;;;;0.26;100.00;97523.50;5034218;28;20070;-83
2023/01/25 10:03:41;;;;;;;64.80;23.30;;;;;;;0.21;100.00;97516.16;5034472;28;20041;-82
2023/01/25 10:06:13;;;;;;;66.20;22.80;;;;;;;0.28;100.00;97517.94;5034039;28;20044;-80
2023/01/25 10:08:47;;;;;;;61.28;24.42;;;;;;;0.31;100.00;97510.25;5032914;28;20057;-78
2023/01/25 10:11:20;;;;;;;63.67;24.55;;;;;;;0.28;100.00;97507.22;5029874;28;20608;-79
2023/01/25 10:13:46;;;;;;;50.38;21.75;;;;;;;0.30;100.00;97507.81;5028246;28;20069;-82
2023/01/25 10:16:21;;;;;;;58.45;22.75;;;;;;;0.34;100.00;97506.31;5027533;28;20056;-77
2023/01/25 10:18:57;;;;;;;55.80;21.30;;;;;;;0.33;100.00;97512.72;5032440;28;20126;-77
2023/01/25 10:21:30;;;;;;;52.42;20.13;;;;;;;0.31;100.00;97498.72;5035855;28;20050;-81
2023/01/25 10:24:38;;;;;;;48.67;20.17;;;;;;;0.32;100.00;97506.56;5032159;28;20046;-80
2023/01/25 10:27:16;;;;;;;43.60;18.10;;;;;;;0.36;99.19;97501.53;5019428;28;20413;-78
2023/01/25 10:29:43;;;;;;;47.33;18.58;;;;;;;0.28;99.28;97499.19;5032982;28;20053;-79
2023/01/25 10:32:18;;;;;;;49.38;19.75;;;;;;;0.32;99.60;97500.38;5041343;28;20061;-77
2023/01/25 10:34:49;;;;;;;46.85;18.50;;;;;;;0.34;99.55;97492.94;5034693;28;20041;-78
2023/01/25 10:37:21;;;;;;;45.85;18.80;;;;;;;0.37;99.40;97487.13;5031724;28;20412;-75
2023/01/25 10:39:56;;;;;;;50.53;20.13;;;;;;;0.39;99.34;97487.72;5040667;28;20045;-79
2023/01/25 10:42:26;;;;;;;47.45;18.67;;;;;;;0.44;99.45;97487.84;5033111;28;20061;-77
2023/01/25 10:44:53;;;;;;;44.92;18.88;;;;;;;0.48;99.08;97481.00;5035423;28;20048;-79
2023/01/25 10:47:25;;;;;;;47.05;20.80;;;;;;;0.42;98.87;97468.53;5037130;28;20053;-80
2023/01/25 10:49:53;;;;;;;45.78;17.70;;;;;;;0.30;98.54;97470.31;5033698;28;20041;-79
2023/01/25 10:52:23;;;;;;;45.80;20.15;;;;;;;0.32;98.54;97470.91;5040214;28;20053;-79
2023/01/25 10:55:11;;;;;;;46.03;19.42;;;;;;;0.32;98.83;97457.53;5033565;28;20049;-79
2023/01/25 10:57:41;;;;;;;51.25;20.80;;;;;;;0.34;98.77;97455.41;5036613;28;20095;-78
2023/01/25 11:00:23;;;;;;;49.05;19.48;;;;;;;0.36;98.96;97459.50;5040595;28;20041;-81
2023/01/25 11:02:49;;;;;;;56.38;19.88;;;;;;;0.38;98.94;97448.56;5036807;28;20045;-80
2023/01/25 11:05:30;;;;;;;47.70;19.73;;;;;;;0.40;98.50;97438.44;5051461;28;20060;-83
2023/01/25 11:08:12;;;;;;;51.08;19.77;;;;;;;0.33;98.80;97437.72;5034553;28;20045;-78
2023/01/25 11:10:46;;;;;;;52.70;20.27;;;;;;;0.35;98.27;97431.06;5034760;28;20041;-81
2023/01/25 11:13:18;;;;;;;;;;;;;;;0.33;98.84;97429.69;5047532;28;20477;-80
2023/01/25 11:15:46;;;;;;;46.60;18.33;;;;;;;0.32;99.13;97425.38;5029647;28;19920;-78
2023/01/25 11:18:16;;;;;;;46.95;19.02;;;;;;;0.28;98.86;97424.19;5041274;28;20037;-79
2023/01/25 11:20:42;;;;;;;45.67;19.33;;;;;;;0.34;98.93;97425.94;5035421;28;20072;-79
2023/01/25 11:23:22;;;;;;;46.97;19.77;;;;;;;0.32;98.91;97415.47;5029978;28;20041;-81